Time;durP1;ratioP1;P1;durP2;ratioP2;P2;SDS_P1;SDS_P2;PMS_P1;PMS_P2;Temp;Humidity;BMP_temperature;BMP_pressure;BME280_temperature;BME280_humidity;BME280_pressure;Samples;Min_cycle;Max_cycle;Signal;HPM_P1;HPM_P2
2021/01/13 00:01:38;;;;;;;3.63;2.08;;;;;;;;;;5033662;28;20213;-57
2021/01/13 00:04:05;;;;;;;4.72;1.70;;;;;;;;;;5032957;28;20693;-57
2021/01/13 00:06:33;;;;;;;8.73;2.15;;;;;;;;;;5032994;28;20559;-57
2021/01/13 00:09:01;;;;;;;6.13;1.75;;;;;;;;;;5033115;28;20302;-57
2021/01/13 00:11:28;;;;;;;5.35;1.90;;;;;;;;;;5033206;28;20222;-56
2021/01/13 00:13:55;;;;;;;9.35;2.47;;;;;;;;;;5032857;28;20671;-57
2021/01/13 00:16:21;;;;;;;5.85;1.80;;;;;;;;;;5033160;28;20279;-56
2021/01/13 00:18:48;;;;;;;7.35;2.20;;;;;;;;;;5033238;28;20194;-57
2021/01/13 00:21:15;;;;;;;8.52;1.75;;;;;;;;;;5032920;28;20230;-57
2021/01/13 00:23:46;;;;;;;5.95;2.50;;;;;;;;;;5035848;28;20202;-57
2021/01/13 00:26:21;;;;;;;9.50;2.30;;;;;;;;;;5037018;28;20256;-57
2021/01/13 00:28:48;;;;;;;9.68;2.13;;;;;;;;;;5036703;28;20213;-57
2021/01/13 00:31:15;;;;;;;8.65;2.10;;;;;;;;;;5036963;28;20222;-58
2021/01/13 00:33:41;;;;;;;8.73;2.25;;;;;;;;;;5037015;28;20206;-57
2021/01/13 00:36:08;;;;;;;4.25;1.80;;;;;;;;;;5037012;28;20552;-57
2021/01/13 00:38:35;;;;;;;5.35;1.73;;;;;;;;;;5037725;28;20203;-59
2021/01/13 00:41:02;;;;;;;4.75;1.77;;;;;;;;;;5036687;28;20713;-57
2021/01/13 00:43:29;;;;;;;5.13;1.83;;;;;;;;;;5036489;28;20328;-57
2021/01/13 00:45:56;;;;;;;6.15;2.08;;;;;;;;;;5037243;28;20272;-57
2021/01/13 00:48:23;;;;;;;7.45;1.60;;;;;;;;;;5036403;28;20218;-57
2021/01/13 00:50:49;;;;;;;5.65;2.22;;;;;;;;;;5036559;28;20256;-58
2021/01/13 00:53:16;;;;;;;11.23;2.50;;;;;;;;;;5036311;28;20258;-57
2021/01/13 00:55:43;;;;;;;8.07;2.20;;;;;;;;;;5036311;28;20206;-57
2021/01/13 00:58:10;;;;;;;8.93;1.80;;;;;;;;;;5036647;28;20380;-57
2021/01/13 01:00:37;;;;;;;4.80;2.17;;;;;;;;;;5036412;28;20229;-56
2021/01/13 01:03:04;;;;;;;7.15;2.20;;;;;;;;;;5036115;28;20675;-57
2021/01/13 01:05:31;;;;;;;9.20;2.28;;;;;;;;;;5036005;28;20202;-57
2021/01/13 01:07:58;;;;;;;6.20;1.65;;;;;;;;;;5036240;28;20218;-56
2021/01/13 01:10:28;;;;;;;5.82;2.15;;;;;;;;;;5036164;28;20237;-58
2021/01/13 01:12:54;;;;;;;6.80;2.40;;;;;;;;;;5036235;28;20207;-58
2021/01/13 01:15:21;;;;;;;6.28;1.67;;;;;;;;;;5036225;28;20207;-57
2021/01/13 01:17:49;;;;;;;8.65;2.08;;;;;;;;;;5035780;28;20744;-57
2021/01/13 01:20:16;;;;;;;4.10;1.17;;;;;;;;;;5035731;28;20233;-57
2021/01/13 01:23:00;;;;;;;5.22;1.55;;;;;;;;;;5036087;28;20217;-57
2021/01/13 01:25:29;;;;;;;5.90;1.48;;;;;;;;;;5035737;28;20565;-57
2021/01/13 01:27:56;;;;;;;5.50;1.77;;;;;;;;;;5035618;28;20732;-58
2021/01/13 01:30:23;;;;;;;5.90;1.65;;;;;;;;;;5035905;28;20218;-57
2021/01/13 01:32:51;;;;;;;7.63;1.30;;;;;;;;;;5035976;28;20264;-57
2021/01/13 01:35:18;;;;;;;9.15;2.83;;;;;;;;;;5035282;28;20209;-57
2021/01/13 01:37:45;;;;;;;4.43;1.88;;;;;;;;;;5035773;28;20198;-58
2021/01/13 01:40:13;;;;;;;3.05;2.75;;;;;;;;;;5035735;28;20229;-58
2021/01/13 01:42:44;;;;;;;8.48;1.85;;;;;;;;;;5035791;28;20206;-57
2021/01/13 01:45:12;;;;;;;5.72;2.25;;;;;;;;;;5035508;28;20187;-57
2021/01/13 01:48:00;;;;;;;6.47;1.40;;;;;;;;;;5035239;28;20227;-57
2021/01/13 01:50:29;;;;;;;9.32;2.17;;;;;;;;;;5035477;28;20276;-57
2021/01/13 01:52:59;;;;;;;7.18;1.83;;;;;;;;;;5035478;28;20203;-57
2021/01/13 01:55:28;;;;;;;7.95;2.15;;;;;;;;;;5035422;28;20210;-57
2021/01/13 01:57:58;;;;;;;7.38;1.95;;;;;;;;;;5035437;28;20202;-57
2021/01/13 02:00:30;;;;;;;9.82;1.77;;;;;;;;;;5035471;28;20218;-58
2021/01/13 02:03:06;;;;;;;5.78;1.88;;;;;;;;;;5035342;28;20187;-57
2021/01/13 02:05:33;;;;;;;5.60;1.95;;;;;;;;;;5035113;28;20182;-56
2021/01/13 02:08:01;;;;;;;4.13;1.83;;;;;;;;;;5035374;28;20272;-57
2021/01/13 02:10:28;;;;;;;4.65;1.48;;;;;;;;;;5035894;28;20318;-57
2021/01/13 02:13:01;;;;;;;6.35;1.40;;;;;;;;;;5035704;28;20210;-56
2021/01/13 02:15:28;;;;;;;6.50;1.70;;;;;;;;;;5035270;28;20197;-57
2021/01/13 02:17:56;;;;;;;12.38;1.88;;;;;;;;;;5036497;28;20205;-57
2021/01/13 02:20:25;;;;;;;5.63;1.55;;;;;;;;;;5035828;28;20230;-57
2021/01/13 02:22:57;;;;;;;5.03;1.77;;;;;;;;;;5035412;28;20198;-57
2021/01/13 02:25:41;;;;;;;8.30;2.50;;;;;;;;;;5035417;28;20202;-57
2021/01/13 02:28:10;;;;;;;5.53;1.60;;;;;;;;;;5035551;28;20225;-56
2021/01/13 02:30:38;;;;;;;7.50;1.48;;;;;;;;;;5035068;28;20706;-56
2021/01/13 02:33:11;;;;;;;6.07;1.90;;;;;;;;;;5035447;28;20199;-56
2021/01/13 02:35:49;;;;;;;9.82;2.20;;;;;;;;;;5035430;28;20190;-56
2021/01/13 02:38:19;;;;;;;7.93;1.55;;;;;;;;;;5034564;28;20647;-57
2021/01/13 02:40:48;;;;;;;9.35;2.10;;;;;;;;;;5034389;28;20702;-57
2021/01/13 02:43:17;;;;;;;5.80;1.90;;;;;;;;;;5034462;28;20206;-57
2021/01/13 02:45:45;;;;;;;5.70;1.83;;;;;;;;;;5033766;28;20229;-58
2021/01/13 02:48:13;;;;;;;6.07;1.90;;;;;;;;;;5033939;28;20218;-57
2021/01/13 02:50:41;;;;;;;4.47;1.85;;;;;;;;;;5034276;28;20270;-58
2021/01/13 02:53:25;;;;;;;8.63;2.30;;;;;;;;;;5034065;28;20576;-57
2021/01/13 02:56:03;;;;;;;11.07;1.65;;;;;;;;;;5034255;28;20187;-57
2021/01/13 02:58:34;;;;;;;5.28;1.77;;;;;;;;;;5033963;28;20183;-58
2021/01/13 03:01:02;;;;;;;9.00;2.42;;;;;;;;;;5034092;28;20284;-58
2021/01/13 03:03:31;;;;;;;6.32;2.00;;;;;;;;;;5033849;28;20257;-57
2021/01/13 03:06:03;;;;;;;7.90;1.55;;;;;;;;;;5033685;28;20210;-57
2021/01/13 03:08:38;;;;;;;4.93;1.80;;;;;;;;;;5033659;28;20706;-57
2021/01/13 03:11:06;;;;;;;5.93;1.85;;;;;;;;;;5033638;28;20709;-54
2021/01/13 03:13:43;;;;;;;7.00;1.92;;;;;;;;;;5033874;28;20260;-57
2021/01/13 03:16:10;;;;;;;2.88;1.60;;;;;;;;;;5033928;28;20205;-57
2021/01/13 03:18:41;;;;;;;5.90;1.75;;;;;;;;;;5033845;28;20202;-56
2021/01/13 03:21:10;;;;;;;7.80;2.83;;;;;;;;;;5033248;28;20234;-57
2021/01/13 03:23:42;;;;;;;5.28;1.30;;;;;;;;;;5033717;28;20612;-58
2021/01/13 03:26:09;;;;;;;4.40;1.75;;;;;;;;;;5033698;28;20564;-57
2021/01/13 03:28:38;;;;;;;3.50;1.65;;;;;;;;;;5033194;28;20222;-57
2021/01/13 03:31:05;;;;;;;7.00;1.95;;;;;;;;;;5033150;28;20772;-57
2021/01/13 03:33:51;;;;;;;7.93;2.00;;;;;;;;;;5033471;28;20206;-57
2021/01/13 03:36:22;;;;;;;10.20;2.22;;;;;;;;;;5034063;28;20285;-57
2021/01/13 03:38:58;;;;;;;2.95;1.85;;;;;;;;;;5033189;28;20197;-57
2021/01/13 03:41:29;;;;;;;15.65;2.55;;;;;;;;;;5033125;28;20226;-58
2021/01/13 03:43:57;;;;;;;7.93;2.10;;;;;;;;;;5033485;28;20190;-56
2021/01/13 03:46:24;;;;;;;7.20;1.60;;;;;;;;;;5033043;28;20635;-57
2021/01/13 03:48:51;;;;;;;7.35;1.60;;;;;;;;;;5033186;28;20570;-58
2021/01/13 03:51:32;;;;;;;7.40;1.48;;;;;;;;;;5032911;28;20749;-58
2021/01/13 03:54:01;;;;;;;8.35;1.63;;;;;;;;;;5032991;28;20705;-57
2021/01/13 03:56:29;;;;;;;5.55;1.58;;;;;;;;;;5032918;28;20585;-57
2021/01/13 03:58:58;;;;;;;12.23;2.05;;;;;;;;;;5032814;28;20198;-57
2021/01/13 04:01:45;;;;;;;7.65;1.48;;;;;;;;;;5032839;28;20253;-58
2021/01/13 04:07:37;;;;;;;10.45;2.25;;;;;;;;;;5111518;27;21036;-58
2021/01/13 04:10:08;;;;;;;7.38;2.13;;;;;;;;;;5110565;28;20267;-58
2021/01/13 04:12:39;;;;;;;6.38;2.10;;;;;;;;;;5111243;28;20194;-58
2021/01/13 04:15:06;;;;;;;6.55;1.98;;;;;;;;;;5110717;28;20540;-57
2021/01/13 04:17:33;;;;;;;5.68;1.67;;;;;;;;;;5110584;28;20675;-57
2021/01/13 04:20:00;;;;;;;10.52;2.22;;;;;;;;;;5116276;22;20222;-62
2021/01/13 04:22:28;;;;;;;11.15;2.08;;;;;;;;;;5050979;28;20201;-62
2021/01/13 04:24:56;;;;;;;9.32;1.90;;;;;;;;;;5050935;28;20549;-61
2021/01/13 04:27:23;;;;;;;4.57;1.73;;;;;;;;;;5050496;28;20222;-62
2021/01/13 04:29:50;;;;;;;8.32;1.60;;;;;;;;;;5052941;28;20221;-61
2021/01/13 04:32:17;;;;;;;6.70;2.33;;;;;;;;;;5051987;28;20206;-63
2021/01/13 04:34:44;;;;;;;5.70;1.50;;;;;;;;;;5050565;28;20206;-61
2021/01/13 04:37:11;;;;;;;6.05;2.38;;;;;;;;;;5050122;28;20209;-62
2021/01/13 04:39:38;;;;;;;9.18;2.20;;;;;;;;;;5050407;28;20221;-61
2021/01/13 04:42:07;;;;;;;6.30;1.48;;;;;;;;;;5050768;28;20212;-61
2021/01/13 04:44:35;;;;;;;6.28;1.90;;;;;;;;;;5050563;28;20668;-62
2021/01/13 04:47:06;;;;;;;8.63;2.58;;;;;;;;;;5050202;28;20241;-62
2021/01/13 04:49:34;;;;;;;6.05;2.10;;;;;;;;;;5050267;28;20182;-61
2021/01/13 04:52:04;;;;;;;6.05;1.98;;;;;;;;;;5050077;28;20198;-62
2021/01/13 04:54:31;;;;;;;7.35;2.05;;;;;;;;;;5050396;28;20284;-62
2021/01/13 04:57:11;;;;;;;3.55;1.90;;;;;;;;;;5049804;28;20202;-62
2021/01/13 05:00:00;;;;;;;8.82;2.40;;;;;;;;;;5049969;28;20229;-62
2021/01/13 05:02:41;;;;;;;13.73;1.83;;;;;;;;;;5050259;28;20201;-62
2021/01/13 05:05:08;;;;;;;4.85;1.80;;;;;;;;;;5047605;28;20198;-62
2021/01/13 05:07:36;;;;;;;7.03;1.95;;;;;;;;;;5050251;28;20218;-60
2021/01/13 05:10:07;;;;;;;6.72;2.05;;;;;;;;;;5050005;28;20222;-61
2021/01/13 05:12:48;;;;;;;4.72;1.70;;;;;;;;;;5050690;28;20232;-61
2021/01/13 05:15:16;;;;;;;6.28;2.03;;;;;;;;;;5050186;28;20185;-61
2021/01/13 05:17:56;;;;;;;4.95;2.15;;;;;;;;;;5045316;28;20229;-62
2021/01/13 05:20:27;;;;;;;6.97;2.25;;;;;;;;;;5036790;28;20226;-61
2021/01/13 05:22:55;;;;;;;8.05;1.90;;;;;;;;;;5037741;28;20270;-62
2021/01/13 05:25:35;;;;;;;6.10;1.80;;;;;;;;;;5038162;28;20202;-61
2021/01/13 05:28:07;;;;;;;7.28;1.77;;;;;;;;;;5038013;28;20190;-61
2021/01/13 05:30:34;;;;;;;8.63;2.00;;;;;;;;;;5038526;28;20223;-62
2021/01/13 05:33:01;;;;;;;11.75;2.42;;;;;;;;;;5037153;28;20213;-62
2021/01/13 05:35:31;;;;;;;5.70;1.90;;;;;;;;;;5037452;28;20209;-61
2021/01/13 05:38:07;;;;;;;5.20;2.05;;;;;;;;;;5037876;28;20214;-62
2021/01/13 05:40:39;;;;;;;2.80;1.67;;;;;;;;;;5037083;28;20229;-61
2021/01/13 05:43:08;;;;;;;12.65;2.80;;;;;;;;;;5036700;28;20554;-60
2021/01/13 05:45:37;;;;;;;7.35;1.98;;;;;;;;;;5036591;28;20271;-61
2021/01/13 05:48:11;;;;;;;8.15;2.13;;;;;;;;;;5038429;28;20569;-62
2021/01/13 05:50:38;;;;;;;14.48;3.00;;;;;;;;;;5042266;28;20226;-63
2021/01/13 05:53:06;;;;;;;10.68;2.60;;;;;;;;;;5041065;28;20670;-62
2021/01/13 05:55:33;;;;;;;10.20;2.50;;;;;;;;;;5039336;28;20203;-61
2021/01/13 05:58:01;;;;;;;8.90;2.30;;;;;;;;;;5036361;28;20247;-62
2021/01/13 06:00:29;;;;;;;8.70;2.50;;;;;;;;;;5036528;28;20284;-62
2021/01/13 06:02:57;;;;;;;5.15;2.20;;;;;;;;;;5037716;28;20565;-61
2021/01/13 06:05:24;;;;;;;10.43;2.55;;;;;;;;;;5037062;28;20209;-61
2021/01/13 06:07:52;;;;;;;8.90;2.10;;;;;;;;;;5036892;28;20207;-62
2021/01/13 06:10:20;;;;;;;4.38;1.67;;;;;;;;;;5035791;28;20226;-62
2021/01/13 06:12:48;;;;;;;9.23;2.63;;;;;;;;;;5035087;28;20210;-61
2021/01/13 06:15:15;;;;;;;6.10;1.70;;;;;;;;;;5035600;28;20198;-62
2021/01/13 06:17:50;;;;;;;7.88;2.30;;;;;;;;;;5035685;28;20195;-61
2021/01/13 06:20:17;;;;;;;5.57;1.80;;;;;;;;;;5035289;28;20240;-61
2021/01/13 06:22:46;;;;;;;5.72;2.20;;;;;;;;;;5035896;28;20199;-60
2021/01/13 06:25:14;;;;;;;5.43;2.38;;;;;;;;;;5034692;28;20229;-60
2021/01/13 06:27:48;;;;;;;3.35;1.65;;;;;;;;;;5035014;28;20225;-61
2021/01/13 06:30:18;;;;;;;3.13;2.00;;;;;;;;;;5033592;28;20268;-60
2021/01/13 06:32:53;;;;;;;7.60;2.10;;;;;;;;;;5034331;28;20289;-60
2021/01/13 06:35:40;;;;;;;4.90;2.00;;;;;;;;;;5035056;28;20182;-60
2021/01/13 06:38:09;;;;;;;8.63;2.42;;;;;;;;;;5034841;28;20290;-61
2021/01/13 06:40:38;;;;;;;8.30;4.38;;;;;;;;;;5034486;28;20234;-60
2021/01/13 06:43:11;;;;;;;7.40;2.08;;;;;;;;;;5034626;28;20260;-60
2021/01/13 06:45:38;;;;;;;6.43;2.63;;;;;;;;;;5034408;28;20206;-60
2021/01/13 06:48:06;;;;;;;8.98;2.42;;;;;;;;;;5034287;28;20312;-62
2021/01/13 06:50:34;;;;;;;7.50;2.88;;;;;;;;;;5034065;28;20621;-61
2021/01/13 06:53:01;;;;;;;8.43;2.15;;;;;;;;;;5034161;28;20206;-61
2021/01/13 06:55:32;;;;;;;8.35;2.38;;;;;;;;;;5034376;28;20225;-61
2021/01/13 06:58:08;;;;;;;10.88;2.58;;;;;;;;;;5034298;28;20286;-60
2021/01/13 07:00:34;;;;;;;8.43;2.53;;;;;;;;;;5034162;28;20233;-62
2021/01/13 07:03:16;;;;;;;8.15;2.65;;;;;;;;;;5034193;28;20206;-61
2021/01/13 07:05:44;;;;;;;7.78;3.97;;;;;;;;;;5034017;28;20218;-62
2021/01/13 07:08:10;;;;;;;7.88;2.53;;;;;;;;;;5036217;28;20206;-62
2021/01/13 07:10:38;;;;;;;12.93;2.63;;;;;;;;;;5038731;28;20235;-61
2021/01/13 07:13:05;;;;;;;5.97;3.10;;;;;;;;;;5033851;28;20202;-61
2021/01/13 07:15:33;;;;;;;8.30;2.65;;;;;;;;;;5034085;28;20206;-62
2021/01/13 07:18:02;;;;;;;7.75;2.85;;;;;;;;;;5033838;28;20198;-61
2021/01/13 07:20:29;;;;;;;6.90;2.55;;;;;;;;;;5033584;28;20237;-61
2021/01/13 07:22:58;;;;;;;7.15;2.58;;;;;;;;;;5034156;28;20310;-62
2021/01/13 07:25:25;;;;;;;3.65;1.75;;;;;;;;;;5033910;28;20202;-62
2021/01/13 07:27:52;;;;;;;3.60;1.95;;;;;;;;;;5033692;28;20213;-62
2021/01/13 07:30:19;;;;;;;4.03;2.17;;;;;;;;;;5034248;28;20254;-61
2021/01/13 07:32:50;;;;;;;6.38;2.00;;;;;;;;;;5034221;28;20290;-60
2021/01/13 07:35:18;;;;;;;6.70;2.20;;;;;;;;;;5036458;28;20205;-60
2021/01/13 07:37:48;;;;;;;6.55;2.42;;;;;;;;;;5037684;28;20483;-59
2021/01/13 07:40:32;;;;;;;9.25;2.80;;;;;;;;;;5034840;28;20496;-61
2021/01/13 07:43:04;;;;;;;5.22;2.42;;;;;;;;;;5036277;28;20197;-60
2021/01/13 07:45:38;;;;;;;9.00;3.13;;;;;;;;;;5035098;28;20206;-61
2021/01/13 07:48:27;;;;;;;4.55;2.35;;;;;;;;;;5035857;28;20190;-59
2021/01/13 07:51:06;;;;;;;6.13;2.47;;;;;;;;;;5035263;28;20222;-60
2021/01/13 07:53:35;;;;;;;5.72;2.90;;;;;;;;;;5035683;28;20211;-60
2021/01/13 07:56:03;;;;;;;6.30;2.60;;;;;;;;;;5036557;28;20201;-59
2021/01/13 07:58:31;;;;;;;6.28;2.30;;;;;;;;;;5036736;28;20203;-58
2021/01/13 08:01:16;;;;;;;10.88;2.28;;;;;;;;;;5036995;28;20242;-60
2021/01/13 08:04:04;;;;;;;16.42;3.53;;;;;;;;;;5037971;28;20233;-60
2021/01/13 08:06:33;;;;;;;5.05;2.17;;;;;;;;;;5005220;28;20218;-59
2021/01/13 08:09:06;;;;;;;10.10;2.72;;;;;;;;;;5038945;28;20210;-59
2021/01/13 08:11:46;;;;;;;3.95;2.50;;;;;;;;;;5039670;28;20574;-60
2021/01/13 08:14:30;;;;;;;4.45;2.33;;;;;;;;;;5036799;28;20202;-59
2021/01/13 08:16:59;;;;;;;9.23;3.10;;;;;;;;;;5037210;28;20187;-59
2021/01/13 08:19:41;;;;;;;10.65;2.97;;;;;;;;;;5039251;28;20280;-59
2021/01/13 08:22:12;;;;;;;5.70;3.30;;;;;;;;;;5039640;28;20210;-59
2021/01/13 08:24:43;;;;;;;4.43;2.45;;;;;;;;;;5036832;28;20205;-59
2021/01/13 08:27:10;;;;;;;8.77;2.70;;;;;;;;;;5036237;28;20453;-62
2021/01/13 08:29:39;;;;;;;8.40;3.40;;;;;;;;;;5040145;28;20597;-59
2021/01/13 08:32:07;;;;;;;6.00;2.35;;;;;;;;;;5037385;28;20206;-60
2021/01/13 08:34:37;;;;;;;5.53;2.25;;;;;;;;;;5039659;28;20229;-59
2021/01/13 08:37:04;;;;;;;6.53;3.30;;;;;;;;;;5036533;28;20182;-59
2021/01/13 08:39:33;;;;;;;5.75;2.60;;;;;;;;;;5034661;28;20203;-59
2021/01/13 08:42:15;;;;;;;8.50;3.03;;;;;;;;;;5035460;28;20297;-61
2021/01/13 08:44:43;;;;;;;7.82;2.30;;;;;;;;;;5032679;28;20202;-59
2021/01/13 08:47:10;;;;;;;3.38;2.35;;;;;;;;;;5034835;28;20241;-59
2021/01/13 08:49:37;;;;;;;7.93;2.78;;;;;;;;;;5036946;28;20230;-59
2021/01/13 08:52:12;;;;;;;4.45;2.45;;;;;;;;;;5036324;28;20203;-60
2021/01/13 08:54:39;;;;;;;6.07;2.58;;;;;;;;;;5040221;28;20223;-58
2021/01/13 08:57:07;;;;;;;3.08;1.98;;;;;;;;;;5044450;28;20198;-60
2021/01/13 08:59:36;;;;;;;5.03;2.30;;;;;;;;;;5041780;28;20280;-60
2021/01/13 09:02:06;;;;;;;5.45;3.05;;;;;;;;;;5038683;28;20199;-61
2021/01/13 09:04:44;;;;;;;8.93;2.78;;;;;;;;;;5040499;28;20190;-60
2021/01/13 09:07:14;;;;;;;4.85;1.90;;;;;;;;;;5036666;28;20207;-59
2021/01/13 09:09:43;;;;;;;8.30;2.75;;;;;;;;;;5037178;28;20237;-60
2021/01/13 09:12:37;;;;;;;4.93;2.65;;;;;;;;;;5038807;28;20207;-66
2021/01/13 09:15:10;;;;;;;4.03;2.40;;;;;;;;;;5001007;28;20211;-62
2021/01/13 09:17:38;;;;;;;3.90;2.15;;;;;;;;;;5046954;28;20187;-68
2021/01/13 09:20:06;;;;;;;4.68;2.55;;;;;;;;;;5046983;28;20257;-60
2021/01/13 09:22:42;;;;;;;1.90;1.70;;;;;;;;;;5044091;28;20206;-60
2021/01/13 09:25:15;;;;;;;3.78;2.20;;;;;;;;;;5042415;28;20206;-59
2021/01/13 09:27:44;;;;;;;5.35;2.08;;;;;;;;;;5039181;28;20548;-60
2021/01/13 09:30:25;;;;;;;17.95;2.70;;;;;;;;;;5039563;28;20591;-60
2021/01/13 09:32:54;;;;;;;4.18;2.20;;;;;;;;;;5038790;28;20190;-60
2021/01/13 09:35:24;;;;;;;4.03;1.90;;;;;;;;;;5038040;28;20621;-59
2021/01/13 09:37:52;;;;;;;4.15;2.92;;;;;;;;;;5038083;28;20194;-58
2021/01/13 09:40:21;;;;;;;6.60;2.60;;;;;;;;;;5038974;28;20321;-59
2021/01/13 09:42:55;;;;;;;4.47;2.70;;;;;;;;;;5039115;28;20233;-60
2021/01/13 09:45:22;;;;;;;4.55;2.60;;;;;;;;;;5037642;28;20190;-59
2021/01/13 09:47:49;;;;;;;4.60;2.80;;;;;;;;;;5036997;28;20226;-59
2021/01/13 09:50:22;;;;;;;2.67;2.45;;;;;;;;;;5037287;28;20222;-59
2021/01/13 09:52:50;;;;;;;5.80;2.88;;;;;;;;;;5039257;28;20294;-59
2021/01/13 09:55:18;;;;;;;2.70;2.45;;;;;;;;;;5039180;28;20667;-60
2021/01/13 09:57:45;;;;;;;4.45;2.90;;;;;;;;;;5039226;28;20257;-60
2021/01/13 10:00:13;;;;;;;5.28;2.30;;;;;;;;;;5037870;28;20237;-60
2021/01/13 10:02:40;;;;;;;5.05;2.70;;;;;;;;;;5038715;28;20211;-61
2021/01/13 10:05:09;;;;;;;3.88;2.30;;;;;;;;;;5038295;28;20202;-60
2021/01/13 10:07:37;;;;;;;6.30;2.45;;;;;;;;;;5038811;28;20828;-57
2021/01/13 10:10:05;;;;;;;8.45;2.20;;;;;;;;;;5039905;28;20227;-60
2021/01/13 10:12:36;;;;;;;4.15;2.30;;;;;;;;;;5040572;28;20202;-59
2021/01/13 10:15:05;;;;;;;2.78;2.00;;;;;;;;;;5041992;28;20210;-60
2021/01/13 10:17:32;;;;;;;5.15;2.38;;;;;;;;;;5041064;28;20213;-60
2021/01/13 10:20:10;;;;;;;5.47;2.30;;;;;;;;;;5040483;28;20234;-60
2021/01/13 10:22:41;;;;;;;4.05;2.45;;;;;;;;;;5039050;28;20201;-60
2021/01/13 10:25:08;;;;;;;5.13;2.45;;;;;;;;;;5039270;28;20258;-59
2021/01/13 10:27:41;;;;;;;5.90;2.47;;;;;;;;;;5041126;28;20226;-59
2021/01/13 10:30:08;;;;;;;5.68;3.28;;;;;;;;;;5038112;28;20264;-60
2021/01/13 10:32:46;;;;;;;2.72;2.45;;;;;;;;;;5037885;28;20206;-61
2021/01/13 10:35:13;;;;;;;12.77;3.95;;;;;;;;;;5037775;28;20579;-60
2021/01/13 10:37:47;;;;;;;10.32;2.72;;;;;;;;;;5037337;28;20209;-59
2021/01/13 10:40:19;;;;;;;4.07;2.40;;;;;;;;;;5037015;28;20589;-60
2021/01/13 10:42:47;;;;;;;6.30;2.67;;;;;;;;;;5038078;28;20202;-61
2021/01/13 10:45:14;;;;;;;4.07;2.10;;;;;;;;;;5037378;28;20252;-61
2021/01/13 10:47:45;;;;;;;7.75;2.28;;;;;;;;;;5035732;28;20218;-59
2021/01/13 10:50:14;;;;;;;5.53;2.40;;;;;;;;;;5035163;28;20733;-60
2021/01/13 10:52:46;;;;;;;4.03;1.70;;;;;;;;;;5034790;28;20603;-60
2021/01/13 10:55:17;;;;;;;5.13;2.00;;;;;;;;;;5035537;28;20195;-61
2021/01/13 10:57:47;;;;;;;5.57;2.10;;;;;;;;;;5035073;28;20483;-62
2021/01/13 11:00:16;;;;;;;6.65;2.47;;;;;;;;;;5035260;28;20272;-60
2021/01/13 11:02:50;;;;;;;5.78;2.42;;;;;;;;;;5035151;28;20613;-58
2021/01/13 11:05:18;;;;;;;7.68;2.50;;;;;;;;;;5035737;28;20186;-62
2021/01/13 11:07:47;;;;;;;7.43;2.47;;;;;;;;;;5035144;28;20226;-60
2021/01/13 11:10:15;;;;;;;6.57;2.25;;;;;;;;;;5034447;28;20659;-58
2021/01/13 11:12:42;;;;;;;6.55;1.73;;;;;;;;;;5034236;28;20203;-59
2021/01/13 11:15:09;;;;;;;6.35;2.50;;;;;;;;;;5033830;28;20670;-61
2021/01/13 11:17:36;;;;;;;7.80;2.10;;;;;;;;;;5034411;28;20286;-59
2021/01/13 11:20:04;;;;;;;9.23;2.38;;;;;;;;;;5034606;28;20230;-60
2021/01/13 11:22:44;;;;;;;9.98;3.25;;;;;;;;;;5034519;28;20198;-60
2021/01/13 11:25:18;;;;;;;9.05;2.33;;;;;;;;;;5034318;28;20195;-59
2021/01/13 11:27:45;;;;;;;12.45;3.78;;;;;;;;;;5033975;28;20207;-60
2021/01/13 11:30:14;;;;;;;7.35;2.70;;;;;;;;;;5033739;28;20284;-60
2021/01/13 11:32:42;;;;;;;10.45;2.30;;;;;;;;;;5033301;28;20217;-58
2021/01/13 11:35:09;;;;;;;6.78;2.17;;;;;;;;;;5033560;28;20250;-59
2021/01/13 11:37:48;;;;;;;4.47;1.67;;;;;;;;;;5033068;28;20202;-60
2021/01/13 11:40:24;;;;;;;10.63;3.47;;;;;;;;;;5032799;28;20223;-61
2021/01/13 11:43:06;;;;;;;4.85;2.30;;;;;;;;;;5033211;28;20194;-59
2021/01/13 11:45:37;;;;;;;8.63;2.90;;;;;;;;;;5034123;28;20225;-60
2021/01/13 11:48:06;;;;;;;9.25;2.35;;;;;;;;;;5033565;28;20210;-60
2021/01/13 11:50:35;;;;;;;9.32;2.70;;;;;;;;;;5033950;28;20218;-58
2021/01/13 11:53:04;;;;;;;6.30;2.20;;;;;;;;;;5033713;28;20206;-59
2021/01/13 11:55:32;;;;;;;5.80;2.10;;;;;;;;;;5036445;28;20202;-59
2021/01/13 11:57:59;;;;;;;7.57;3.20;;;;;;;;;;5042410;28;20269;-60
2021/01/13 12:00:28;;;;;;;4.75;2.30;;;;;;;;;;5035224;28;20230;-60
2021/01/13 12:02:55;;;;;;;7.45;2.58;;;;;;;;;;5035573;28;20202;-60
2021/01/13 12:05:32;;;;;;;11.63;3.10;;;;;;;;;;5034319;28;20202;-60
2021/01/13 12:08:00;;;;;;;6.22;2.85;;;;;;;;;;5034376;28;20202;-59
2021/01/13 12:10:31;;;;;;;5.60;2.70;;;;;;;;;;5034106;28;20218;-59
2021/01/13 12:13:10;;;;;;;8.25;2.75;;;;;;;;;;5037583;28;20295;-59
2021/01/13 12:15:47;;;;;;;11.23;2.33;;;;;;;;;;5035375;28;20890;-59
2021/01/13 12:18:18;;;;;;;13.85;2.97;;;;;;;;;;5034081;28;20424;-59
2021/01/13 12:20:45;;;;;;;6.57;2.45;;;;;;;;;;5033364;28;20233;-59
2021/01/13 12:23:18;;;;;;;6.00;2.75;;;;;;;;;;5033360;28;20206;-60
2021/01/13 12:25:45;;;;;;;5.68;1.88;;;;;;;;;;5034983;28;20572;-60
2021/01/13 12:28:13;;;;;;;9.48;2.40;;;;;;;;;;5035696;28;20226;-61
2021/01/13 12:30:52;;;;;;;6.07;2.25;;;;;;;;;;5037513;28;20266;-59
2021/01/13 12:33:19;;;;;;;4.70;1.55;;;;;;;;;;5037662;28;20216;-59
2021/01/13 12:35:46;;;;;;;13.68;2.90;;;;;;;;;;5037549;28;20574;-61
2021/01/13 12:38:13;;;;;;;7.47;2.45;;;;;;;;;;5037679;28;20258;-60
2021/01/13 12:40:39;;;;;;;9.88;2.17;;;;;;;;;;5037311;28;20229;-60
2021/01/13 12:43:17;;;;;;;7.40;2.15;;;;;;;;;;5037629;28;20252;-59
2021/01/13 12:45:44;;;;;;;9.00;2.75;;;;;;;;;;5036808;28;20437;-60
2021/01/13 12:48:12;;;;;;;6.82;1.95;;;;;;;;;;5037403;28;20222;-60
2021/01/13 12:50:39;;;;;;;8.15;2.60;;;;;;;;;;5037193;28;20590;-58
2021/01/13 12:53:06;;;;;;;3.40;2.08;;;;;;;;;;5039012;28;20198;-59
2021/01/13 12:55:33;;;;;;;4.38;1.73;;;;;;;;;;5037142;28;20198;-60
2021/01/13 12:58:03;;;;;;;6.35;2.30;;;;;;;;;;5036789;28;20195;-58
2021/01/13 13:00:30;;;;;;;8.23;2.15;;;;;;;;;;5037954;28;20227;-60
2021/01/13 13:02:57;;;;;;;7.57;2.20;;;;;;;;;;5037747;28;20260;-60
2021/01/13 13:05:24;;;;;;;3.83;2.00;;;;;;;;;;5045794;28;20217;-62
2021/01/13 13:07:50;;;;;;;5.50;2.17;;;;;;;;;;5052966;28;20293;-60
2021/01/13 13:10:17;;;;;;;9.93;2.15;;;;;;;;;;5052839;28;20222;-62
2021/01/13 13:12:44;;;;;;;6.78;2.08;;;;;;;;;;5044223;28;20209;-60
2021/01/13 13:15:11;;;;;;;7.87;2.20;;;;;;;;;;5037448;28;20437;-60
2021/01/13 13:17:39;;;;;;;7.45;1.90;;;;;;;;;;5037806;28;20545;-60
2021/01/13 13:20:07;;;;;;;7.43;2.10;;;;;;;;;;5037406;28;20296;-60
2021/01/13 13:22:34;;;;;;;6.47;2.75;;;;;;;;;;5038569;28;20210;-60
2021/01/13 13:25:01;;;;;;;4.97;2.05;;;;;;;;;;5037186;28;20527;-60
2021/01/13 13:27:27;;;;;;;8.27;2.30;;;;;;;;;;5037471;28;20285;-60
2021/01/13 13:29:54;;;;;;;4.97;2.25;;;;;;;;;;5036479;28;20219;-59
2021/01/13 13:32:22;;;;;;;6.50;2.53;;;;;;;;;;5036635;28;20650;-59
2021/01/13 13:34:49;;;;;;;6.85;2.75;;;;;;;;;;5036596;28;20277;-61
2021/01/13 13:37:16;;;;;;;4.78;2.40;;;;;;;;;;5036309;28;20195;-59
2021/01/13 13:39:43;;;;;;;6.50;2.55;;;;;;;;;;5035715;28;20569;-59
2021/01/13 13:42:10;;;;;;;5.75;2.33;;;;;;;;;;5036191;28;20681;-58
2021/01/13 13:44:36;;;;;;;5.88;2.33;;;;;;;;;;5036482;28;20202;-60
2021/01/13 13:47:03;;;;;;;7.15;2.40;;;;;;;;;;5035842;28;20218;-60
2021/01/13 13:49:30;;;;;;;3.78;2.65;;;;;;;;;;5035726;28;20356;-58
2021/01/13 13:51:58;;;;;;;4.63;2.33;;;;;;;;;;5037110;28;20198;-60
2021/01/13 13:54:24;;;;;;;6.38;2.35;;;;;;;;;;5036626;28;20206;-59
2021/01/13 13:56:54;;;;;;;7.80;2.55;;;;;;;;;;5036636;28;20199;-59
2021/01/13 13:59:21;;;;;;;11.10;2.70;;;;;;;;;;5035718;28;20198;-59
2021/01/13 14:01:48;;;;;;;6.28;2.33;;;;;;;;;;5035585;28;20202;-59
2021/01/13 14:04:15;;;;;;;7.55;2.00;;;;;;;;;;5036119;28;20199;-58
2021/01/13 14:06:42;;;;;;;8.15;2.13;;;;;;;;;;5034867;28;20232;-59
2021/01/13 14:09:09;;;;;;;7.65;2.10;;;;;;;;;;5034661;28;20264;-60
2021/01/13 14:11:40;;;;;;;6.47;1.80;;;;;;;;;;5034400;28;20237;-58
2021/01/13 14:14:07;;;;;;;4.40;2.28;;;;;;;;;;5035624;28;20294;-60
2021/01/13 14:16:34;;;;;;;3.17;1.70;;;;;;;;;;5048711;28;20198;-64
2021/01/13 14:19:02;;;;;;;4.72;2.28;;;;;;;;;;5048332;28;20217;-60
2021/01/13 14:21:28;;;;;;;8.95;2.42;;;;;;;;;;5048095;28;20257;-62
2021/01/13 14:23:55;;;;;;;11.63;2.72;;;;;;;;;;5040487;28;20203;-60
2021/01/13 14:26:23;;;;;;;6.28;2.40;;;;;;;;;;5037202;28;20202;-60
2021/01/13 14:28:50;;;;;;;5.63;2.47;;;;;;;;;;5036409;28;20222;-60
2021/01/13 14:31:16;;;;;;;8.70;2.67;;;;;;;;;;5035715;28;20284;-58
2021/01/13 14:33:43;;;;;;;4.65;2.60;;;;;;;;;;5034440;28;20203;-59
2021/01/13 14:36:14;;;;;;;4.97;2.53;;;;;;;;;;5035269;28;20203;-60
2021/01/13 14:38:40;;;;;;;7.00;2.92;;;;;;;;;;5034689;28;20555;-59
2021/01/13 14:41:07;;;;;;;6.80;1.67;;;;;;;;;;5034568;28;20374;-60
2021/01/13 14:43:35;;;;;;;5.60;2.50;;;;;;;;;;5037309;28;20587;-59
2021/01/13 14:46:02;;;;;;;7.25;2.65;;;;;;;;;;5038746;28;20209;-59
2021/01/13 14:48:29;;;;;;;3.05;1.67;;;;;;;;;;5034634;28;20229;-60
2021/01/13 14:50:56;;;;;;;6.75;2.55;;;;;;;;;;5033888;28;20226;-61
2021/01/13 14:53:23;;;;;;;4.63;1.80;;;;;;;;;;5035734;28;20210;-60
2021/01/13 14:55:49;;;;;;;4.88;2.75;;;;;;;;;;5035194;28;20290;-60
2021/01/13 14:58:16;;;;;;;7.53;1.95;;;;;;;;;;5035931;28;20666;-61
2021/01/13 15:00:44;;;;;;;3.60;1.80;;;;;;;;;;5036291;28;20253;-59